createdAt,value
2023-03-08T00:02:05.148Z,98.70
2023-03-08T00:04:36.061Z,98.60
2023-03-08T00:07:06.836Z,99.00
2023-03-08T00:09:41.310Z,99.20
2023-03-08T00:12:11.961Z,97.90
2023-03-08T00:14:42.294Z,98.10
2023-03-08T00:17:13.202Z,98.10
2023-03-08T00:19:43.401Z,97.60
2023-03-08T00:22:14.393Z,97.90
2023-03-08T00:24:47.699Z,97.80
2023-03-08T00:27:18.198Z,97.70
2023-03-08T00:29:48.163Z,97.60
2023-03-08T00:32:18.655Z,98.50
2023-03-08T00:34:49.201Z,97.30
2023-03-08T00:37:19.281Z,98.00
2023-03-08T00:39:57.050Z,97.30
2023-03-08T00:42:28.524Z,98.10
2023-03-08T00:44:58.563Z,98.20
2023-03-08T00:47:28.695Z,98.00
2023-03-08T00:49:58.862Z,97.50
2023-03-08T00:52:29.514Z,98.00
2023-03-08T00:55:02.826Z,98.20
2023-03-08T00:57:33.582Z,97.80
2023-03-08T01:00:06.011Z,99.30
2023-03-08T01:02:36.247Z,98.60
2023-03-08T01:05:06.642Z,98.60
2023-03-08T01:07:36.774Z,98.50
2023-03-08T01:10:10.770Z,99.50
2023-03-08T01:12:41.500Z,98.90
2023-03-08T01:15:13.501Z,98.90
2023-03-08T01:17:44.217Z,99.30
2023-03-08T01:20:15.747Z,99.00
2023-03-08T01:22:46.347Z,98.60
2023-03-08T01:25:19.413Z,99.10
2023-03-08T01:27:49.693Z,99.50
2023-03-08T01:30:20.738Z,99.30
2023-03-08T01:32:51.185Z,99.30
2023-03-08T01:35:21.946Z,99.60
2023-03-08T01:37:55.931Z,99.90
2023-03-08T01:40:29.129Z,99.90
2023-03-08T01:42:59.317Z,99.90
2023-03-08T01:46:15.104Z,99.90
2023-03-08T01:48:53.007Z,99.90
2023-03-08T01:51:33.242Z,99.90
2023-03-08T01:54:10.947Z,99.90
2023-03-08T01:56:47.080Z,99.90
2023-03-08T01:59:18.505Z,99.90
2023-03-08T02:01:50.567Z,99.90
2023-03-08T02:04:21.140Z,99.90
2023-03-08T02:06:51.693Z,99.90
2023-03-08T02:09:26.464Z,99.90
2023-03-08T02:12:06.948Z,99.90
2023-03-08T02:14:37.767Z,99.90
2023-03-08T02:17:08.102Z,99.90
2023-03-08T02:19:51.608Z,99.90
2023-03-08T02:22:25.740Z,99.90
2023-03-08T02:24:58.634Z,99.90
2023-03-08T02:27:31.412Z,99.90
2023-03-08T02:30:04.282Z,99.90
2023-03-08T02:32:35.691Z,99.90
2023-03-08T02:35:05.777Z,99.90
2023-03-08T02:37:37.358Z,99.90
2023-03-08T02:40:14.147Z,99.90
2023-03-08T02:42:44.623Z,99.90
2023-03-08T02:45:15.737Z,99.90
2023-03-08T02:47:45.927Z,99.90
2023-03-08T02:50:16.163Z,99.90
2023-03-08T02:52:46.384Z,99.90
2023-03-08T02:55:20.075Z,99.90
2023-03-08T02:57:50.505Z,99.90
2023-03-08T03:00:22.596Z,99.90
2023-03-08T03:02:53.309Z,99.90
2023-03-08T03:05:23.619Z,99.90
2023-03-08T03:07:55.480Z,99.90
2023-03-08T03:10:28.692Z,99.90
2023-03-08T03:13:00.599Z,99.90
2023-03-08T03:15:33.979Z,99.90
2023-03-08T03:18:05.711Z,99.90
2023-03-08T03:20:37.274Z,99.90
2023-03-08T03:23:08.896Z,99.90
2023-03-08T03:25:48.216Z,99.90
2023-03-08T03:28:33.451Z,99.90
2023-03-08T03:31:09.498Z,99.90
2023-03-08T03:33:40.715Z,99.90
2023-03-08T03:36:15.245Z,99.90
2023-03-08T03:38:46.318Z,99.90
2023-03-08T03:41:22.152Z,99.90
2023-03-08T03:43:56.776Z,99.90
2023-03-08T03:46:28.685Z,99.90
2023-03-08T03:49:01.919Z,99.90
2023-03-08T03:51:38.085Z,99.90
2023-03-08T03:54:20.403Z,99.90
2023-03-08T03:56:58.249Z,99.90
2023-03-08T03:59:30.701Z,99.90
2023-03-08T04:02:01.248Z,99.90
2023-03-08T04:04:40.382Z,99.90
2023-03-08T04:07:13.470Z,99.90
2023-03-08T04:09:49.793Z,99.90
2023-03-08T04:12:23.791Z,99.90
2023-03-08T04:14:56.088Z,99.90
2023-03-08T04:17:29.679Z,99.90
2023-03-08T04:20:00.244Z,99.90
2023-03-08T04:22:32.749Z,99.90
2023-03-08T04:25:11.398Z,99.90
2023-03-08T04:27:56.362Z,99.90
2023-03-08T04:30:26.616Z,99.90
2023-03-08T04:32:58.616Z,99.90
2023-03-08T04:35:34.805Z,99.90
2023-03-08T04:38:06.086Z,99.90
2023-03-08T04:40:57.100Z,99.90
2023-03-08T04:43:30.208Z,99.90
2023-03-08T04:46:00.952Z,99.90
2023-03-08T04:48:32.089Z,99.90
2023-03-08T04:51:05.205Z,99.90
2023-03-08T04:53:37.176Z,99.90
2023-03-08T04:56:09.408Z,99.90
2023-03-08T04:58:43.507Z,99.90
2023-03-08T05:01:17.131Z,99.90
2023-03-08T05:03:49.987Z,99.90
2023-03-08T05:06:22.903Z,99.90
2023-03-08T05:08:53.683Z,99.90
2023-03-08T05:11:29.338Z,99.90
2023-03-08T05:14:03.130Z,99.90
2023-03-08T05:16:34.101Z,99.90
2023-03-08T05:19:06.128Z,99.90
2023-03-08T05:21:42.515Z,99.90
2023-03-08T05:24:12.908Z,99.90
2023-03-08T05:26:43.771Z,99.90
2023-03-08T05:29:20.566Z,99.90
2023-03-08T05:31:53.641Z,99.90
2023-03-08T05:34:24.850Z,99.90
2023-03-08T05:36:55.075Z,99.90
2023-03-08T05:39:25.443Z,99.90
2023-03-08T05:42:05.346Z,99.90
2023-03-08T05:44:45.422Z,99.90
2023-03-08T05:47:17.546Z,99.90
2023-03-08T05:49:48.093Z,99.90
2023-03-08T05:52:20.205Z,99.90
2023-03-08T05:54:50.545Z,99.90
2023-03-08T05:57:23.120Z,99.90
2023-03-08T05:59:57.048Z,99.90
2023-03-08T06:02:27.727Z,99.90
2023-03-08T06:04:59.118Z,99.90
2023-03-08T06:07:31.312Z,99.90
2023-03-08T06:10:14.150Z,99.90
2023-03-08T06:12:44.235Z,99.90
2023-03-08T06:15:20.905Z,99.90
2023-03-08T06:17:51.104Z,99.90
2023-03-08T06:20:23.380Z,99.90
2023-03-08T06:22:54.986Z,99.90
2023-03-08T06:25:28.244Z,99.90
2023-03-08T06:27:59.069Z,99.90
2023-03-08T06:30:37.852Z,99.90
2023-03-08T06:33:08.882Z,99.90
2023-03-08T06:35:39.133Z,99.90
2023-03-08T06:38:10.362Z,99.90
2023-03-08T06:40:41.361Z,99.90
2023-03-08T06:43:11.912Z,99.90
2023-03-08T06:45:44.685Z,99.90
2023-03-08T06:48:15.439Z,99.90
2023-03-08T06:50:45.844Z,99.90
2023-03-08T06:53:16.463Z,99.90
2023-03-08T06:55:57.670Z,99.90
2023-03-08T06:58:27.938Z,99.90
2023-03-08T07:01:01.205Z,99.90
2023-03-08T07:03:31.540Z,99.90
2023-03-08T07:06:03.147Z,99.90
2023-03-08T07:08:33.357Z,99.90
2023-03-08T07:11:03.989Z,99.90
2023-03-08T07:13:34.227Z,99.90
2023-03-08T07:16:14.712Z,99.90
2023-03-08T07:18:45.675Z,99.90
2023-03-08T07:21:16.241Z,99.90
2023-03-08T07:23:46.423Z,99.90
2023-03-08T07:26:16.879Z,99.90
2023-03-08T07:28:47.144Z,99.90
2023-03-08T07:31:20.697Z,99.90
2023-03-08T07:33:51.046Z,99.90
2023-03-08T07:36:21.296Z,99.70
2023-03-08T07:38:51.815Z,99.90
2023-03-08T07:41:23.585Z,99.90
2023-03-08T07:43:53.945Z,99.90
2023-03-08T07:46:31.051Z,99.40
2023-03-08T07:49:01.237Z,99.10
2023-03-08T07:51:31.688Z,98.80
2023-03-08T07:54:03.062Z,99.00
2023-03-08T07:56:33.281Z,98.80
2023-03-08T07:59:03.495Z,98.70
2023-03-08T08:01:36.642Z,98.80
2023-03-08T08:04:09.285Z,98.80
2023-03-08T08:06:39.854Z,99.80
2023-03-08T08:09:12.308Z,99.10
2023-03-08T08:11:42.481Z,99.10
2023-03-08T08:14:12.952Z,99.10
2023-03-08T08:16:46.094Z,99.00
2023-03-08T08:19:17.265Z,99.00
2023-03-08T08:21:47.630Z,98.80
2023-03-08T08:24:18.290Z,99.00
2023-03-08T08:26:48.451Z,99.30
2023-03-08T08:29:18.785Z,99.10
2023-03-08T08:31:52.843Z,99.90
2023-03-08T08:34:23.497Z,99.30
2023-03-08T08:36:53.728Z,99.90
2023-03-08T08:39:23.902Z,99.90
2023-03-08T08:41:54.466Z,99.90
2023-03-08T08:44:24.634Z,99.90
2023-03-08T08:46:57.693Z,99.90
2023-03-08T08:49:28.035Z,99.90
2023-03-08T08:51:58.196Z,99.90
2023-03-08T08:54:30.355Z,99.90
2023-03-08T08:57:00.922Z,99.90
2023-03-08T08:59:31.267Z,99.90
2023-03-08T09:02:04.921Z,99.90
2023-03-08T09:04:35.247Z,99.90
2023-03-08T09:07:07.631Z,99.90
2023-03-08T09:09:37.803Z,99.90
2023-03-08T09:12:09.059Z,99.90
2023-03-08T09:14:39.330Z,99.90
2023-03-08T09:17:12.217Z,99.90
2023-03-08T09:19:42.453Z,99.90
2023-03-08T09:22:14.121Z,99.90
2023-03-08T09:24:45.946Z,99.90
2023-03-08T09:27:16.074Z,99.90
2023-03-08T09:29:46.354Z,99.90
2023-03-08T09:32:19.492Z,99.90
2023-03-08T09:34:50.054Z,99.90
2023-03-08T09:37:20.351Z,99.90
2023-03-08T09:39:54.804Z,99.90
2023-03-08T09:42:29.551Z,99.90
2023-03-08T09:45:10.819Z,99.90
2023-03-08T09:47:52.381Z,99.90
2023-03-08T09:50:40.509Z,99.90
2023-03-08T09:53:24.853Z,99.90
2023-03-08T09:55:59.791Z,99.90
2023-03-08T09:58:44.776Z,99.90
2023-03-08T10:01:35.209Z,99.90
2023-03-08T10:04:35.954Z,99.90
2023-03-08T10:07:34.307Z,99.90
2023-03-08T10:10:24.683Z,99.90
2023-03-08T10:13:22.228Z,99.90
2023-03-08T10:15:58.968Z,99.90
2023-03-08T10:18:37.164Z,99.90
2023-03-08T10:21:17.554Z,99.90
2023-03-08T10:23:51.403Z,99.90
2023-03-08T10:26:22.777Z,99.90
2023-03-08T10:28:53.270Z,99.90
2023-03-08T10:31:27.965Z,99.50
2023-03-08T10:34:14.347Z,99.50
2023-03-08T10:37:00.316Z,99.90
2023-03-08T10:39:31.252Z,99.90
2023-03-08T10:42:04.812Z,99.90
2023-03-08T10:44:42.852Z,99.90
2023-03-08T10:47:27.077Z,99.90
2023-03-08T10:50:16.559Z,99.90
2023-03-08T10:52:51.755Z,99.90
2023-03-08T10:55:24.894Z,99.90
2023-03-08T10:57:58.546Z,99.90
2023-03-08T11:00:36.557Z,99.90
2023-03-08T11:03:17.675Z,99.90
2023-03-08T11:06:01.399Z,99.90
2023-03-08T11:08:38.055Z,99.90
2023-03-08T11:11:13.063Z,99.90
2023-03-08T11:13:46.956Z,99.90
2023-03-08T11:16:52.338Z,99.90
2023-03-08T11:19:51.549Z,99.90
2023-03-08T11:22:36.299Z,99.90
2023-03-08T11:25:27.978Z,99.90
2023-03-08T11:28:27.170Z,99.90
2023-03-08T11:31:16.431Z,99.90
2023-03-08T11:34:17.793Z,99.90
2023-03-08T11:37:00.314Z,99.90
2023-03-08T11:39:36.850Z,99.90
2023-03-08T11:42:25.158Z,99.90
2023-03-08T11:45:16.906Z,99.90
2023-03-08T11:48:18.809Z,99.90
2023-03-08T11:50:56.731Z,99.90
2023-03-08T11:53:44.594Z,99.90
2023-03-08T11:56:43.440Z,99.90
2023-03-08T11:59:25.946Z,99.90
2023-03-08T12:04:45.337Z,99.90
2023-03-08T12:07:25.582Z,99.90
2023-03-08T12:10:04.951Z,99.90
2023-03-08T12:12:45.331Z,99.90
2023-03-08T12:15:30.624Z,99.90
2023-03-08T12:18:17.741Z,99.90
2023-03-08T12:20:49.068Z,99.90
2023-03-08T12:23:31.471Z,99.90
2023-03-08T12:26:12.308Z,99.90
2023-03-08T12:28:49.820Z,99.90
2023-03-08T12:31:30.563Z,99.90
2023-03-08T12:34:03.250Z,99.90
2023-03-08T12:36:41.896Z,99.90
2023-03-08T12:39:29.077Z,99.90
2023-03-08T12:42:16.066Z,99.90
2023-03-08T12:44:46.805Z,99.90
2023-03-08T12:47:26.719Z,99.90
2023-03-08T12:49:59.507Z,99.90
2023-03-08T12:52:36.041Z,99.90
2023-03-08T12:55:20.952Z,99.90
2023-03-08T12:57:56.328Z,99.90
2023-03-08T13:00:33.774Z,99.90
2023-03-08T13:03:38.527Z,99.90
2023-03-08T13:06:42.115Z,99.90
2023-03-08T13:09:24.419Z,99.90
2023-03-08T13:12:04.630Z,99.90
2023-03-08T13:14:45.440Z,99.90
2023-03-08T13:17:41.469Z,99.90
2023-03-08T13:20:24.350Z,99.90
2023-03-08T13:23:11.106Z,99.90
2023-03-08T13:25:57.183Z,99.90
2023-03-08T13:28:41.138Z,99.90
2023-03-08T13:31:19.511Z,99.90
2023-03-08T13:33:52.626Z,99.90
2023-03-08T13:36:28.999Z,99.90
2023-03-08T13:39:04.113Z,99.90
2023-03-08T13:41:37.447Z,99.90
2023-03-08T13:44:10.423Z,99.90
2023-03-08T13:46:43.104Z,99.90
2023-03-08T13:49:20.311Z,99.90
2023-03-08T13:51:58.682Z,99.90
2023-03-08T13:54:33.269Z,99.90
2023-03-08T13:57:07.992Z,99.90
2023-03-08T13:59:38.426Z,99.90
2023-03-08T14:02:23.778Z,99.90
2023-03-08T14:04:54.663Z,99.90
2023-03-08T14:07:31.126Z,99.90
2023-03-08T14:10:02.257Z,99.90
2023-03-08T14:12:37.012Z,99.90
2023-03-08T14:15:09.966Z,99.90
2023-03-08T14:17:40.224Z,99.90
2023-03-08T14:20:24.468Z,99.90
2023-03-08T14:22:58.296Z,99.90
2023-03-08T14:25:33.141Z,99.90
2023-03-08T14:28:03.236Z,99.90
2023-03-08T14:30:34.278Z,99.90
2023-03-08T14:33:08.913Z,99.90
2023-03-08T14:35:42.454Z,99.90
2023-03-08T14:38:27.839Z,99.90
2023-03-08T14:40:59.830Z,99.90
2023-03-08T14:43:30.626Z,99.90
2023-03-08T14:46:05.009Z,99.90
2023-03-08T14:48:37.555Z,99.90
2023-03-08T14:51:28.227Z,99.90
2023-03-08T14:54:07.394Z,99.90
2023-03-08T14:56:38.048Z,99.90
2023-03-08T14:59:12.130Z,99.90
2023-03-08T15:01:46.624Z,99.90
2023-03-08T15:04:21.989Z,99.90
2023-03-08T15:06:55.623Z,99.90
2023-03-08T15:09:30.166Z,99.90
2023-03-08T15:12:01.985Z,99.90
2023-03-08T15:14:32.142Z,99.90
2023-03-08T15:17:02.689Z,99.90
2023-03-08T15:19:33.103Z,99.90
2023-03-08T15:22:04.636Z,99.90
2023-03-08T15:24:37.539Z,99.90
2023-03-08T15:27:07.891Z,99.90
2023-03-08T15:29:39.125Z,99.90
2023-03-08T15:32:11.697Z,99.90
2023-03-08T15:34:42.455Z,99.90
2023-03-08T15:37:17.327Z,99.90
2023-03-08T15:39:49.964Z,99.90
2023-03-08T15:42:20.126Z,99.90
2023-03-08T15:44:50.168Z,99.90
2023-03-08T15:47:21.656Z,99.90
2023-03-08T15:49:54.399Z,99.90
2023-03-08T15:52:30.232Z,99.90
2023-03-08T15:55:03.532Z,99.90
2023-03-08T15:57:34.873Z,99.90
2023-03-08T16:00:06.565Z,99.90
2023-03-08T16:02:42.609Z,99.90
2023-03-08T16:05:15.817Z,99.90
2023-03-08T16:07:46.113Z,99.90
2023-03-08T16:10:19.091Z,99.90
2023-03-08T16:12:49.284Z,99.90
2023-03-08T16:15:19.714Z,99.90
2023-03-08T16:17:50.665Z,99.90
2023-03-08T16:20:23.374Z,99.90
2023-03-08T16:22:55.241Z,99.90
2023-03-08T16:25:28.109Z,99.90
2023-03-08T16:27:58.294Z,99.90
2023-03-08T16:30:28.361Z,99.90
2023-03-08T16:32:58.968Z,99.90
2023-03-08T16:35:29.185Z,99.90
2023-03-08T16:37:59.542Z,99.90
2023-03-08T16:40:33.436Z,99.90
2023-03-08T16:43:03.643Z,99.90
2023-03-08T16:45:33.972Z,99.90
2023-03-08T16:48:04.829Z,99.90
2023-03-08T16:50:34.877Z,99.90
2023-03-08T16:53:05.689Z,99.90
2023-03-08T16:55:39.857Z,99.90
2023-03-08T16:58:09.903Z,99.90
2023-03-08T17:00:40.514Z,99.90
2023-03-08T17:03:11.114Z,99.90
2023-03-08T17:05:50.160Z,99.90
2023-03-08T17:08:20.282Z,99.90
2023-03-08T17:10:53.396Z,99.90
2023-03-08T17:13:23.456Z,99.90
2023-03-08T17:15:53.652Z,99.90
2023-03-08T17:18:24.760Z,99.90
2023-03-08T17:20:56.845Z,99.90
2023-03-08T17:23:28.367Z,99.90
2023-03-08T17:26:01.093Z,99.90
2023-03-08T17:28:31.741Z,99.90
2023-03-08T17:31:02.346Z,99.90
2023-03-08T17:33:32.684Z,99.90
2023-03-08T17:36:03.077Z,99.90
2023-03-08T17:38:33.985Z,99.90
2023-03-08T17:41:09.520Z,99.90
2023-03-08T17:43:41.250Z,99.90
2023-03-08T17:46:16.485Z,99.90
2023-03-08T17:48:47.609Z,99.90
2023-03-08T17:51:20.091Z,99.90
2023-03-08T17:53:51.094Z,99.90
2023-03-08T17:56:26.501Z,99.90
2023-03-08T17:58:58.640Z,99.90
2023-03-08T18:01:31.496Z,99.90
2023-03-08T18:04:03.707Z,99.90
2023-03-08T18:06:38.229Z,99.90
2023-03-08T18:09:10.881Z,99.90
2023-03-08T18:11:44.667Z,99.90
2023-03-08T18:14:18.404Z,99.90
2023-03-08T18:16:48.443Z,99.90
2023-03-08T18:19:19.083Z,99.90
2023-03-08T18:21:54.518Z,99.90
2023-03-08T18:24:25.472Z,99.90
2023-03-08T18:26:58.465Z,99.90
2023-03-08T18:29:29.199Z,99.90
2023-03-08T18:32:01.352Z,99.90
2023-03-08T18:34:31.652Z,99.90
2023-03-08T18:37:05.720Z,99.90
2023-03-08T18:39:36.254Z,99.90
2023-03-08T18:42:10.701Z,99.90
2023-03-08T18:44:41.612Z,99.90
2023-03-08T18:47:14.196Z,99.90
2023-03-08T18:49:44.778Z,99.90
2023-03-08T18:52:15.148Z,99.90
2023-03-08T18:54:45.510Z,99.90
2023-03-08T18:57:19.133Z,99.90
2023-03-08T18:59:50.078Z,99.90
2023-03-08T19:02:24.956Z,99.90
2023-03-08T19:04:58.520Z,99.90
2023-03-08T19:07:29.786Z,99.90
2023-03-08T19:10:00.795Z,99.90
2023-03-08T19:12:33.847Z,99.90
2023-03-08T19:15:08.482Z,99.90
2023-03-08T19:17:38.874Z,99.90
2023-03-08T19:20:13.058Z,99.90
2023-03-08T19:22:43.634Z,99.90
2023-03-08T19:25:16.011Z,99.90
2023-03-08T19:27:49.301Z,99.90
2023-03-08T19:30:21.941Z,99.90
2023-03-08T19:32:54.189Z,99.90
2023-03-08T19:35:25.205Z,99.90
2023-03-08T19:37:55.665Z,99.90
2023-03-08T19:40:25.690Z,99.90
2023-03-08T19:42:58.855Z,99.90
2023-03-08T19:45:29.479Z,99.90
2023-03-08T19:48:00.001Z,99.90
2023-03-08T19:50:31.768Z,99.90
2023-03-08T19:53:01.962Z,99.90
2023-03-08T19:55:32.208Z,99.90
2023-03-08T19:58:06.336Z,99.90
2023-03-08T20:00:36.824Z,99.90
2023-03-08T20:03:07.335Z,99.90
2023-03-08T20:05:43.408Z,99.90
2023-03-08T20:08:14.671Z,99.90
2023-03-08T20:10:45.465Z,99.90
2023-03-08T20:13:18.773Z,99.90
2023-03-08T20:15:49.781Z,99.90
2023-03-08T20:18:19.997Z,99.90
2023-03-08T20:20:50.910Z,99.90
2023-03-08T20:23:21.202Z,99.90
2023-03-08T20:25:51.687Z,99.90
2023-03-08T20:28:24.629Z,99.90
2023-03-08T20:30:54.952Z,99.90
2023-03-08T20:33:25.701Z,99.90
2023-03-08T20:36:03.216Z,99.90
2023-03-08T20:38:34.267Z,99.90
2023-03-08T20:41:08.873Z,99.90
2023-03-08T20:43:43.125Z,99.90
2023-03-08T20:46:17.060Z,99.90
2023-03-08T20:48:49.124Z,99.90
2023-03-08T20:51:22.236Z,99.90
2023-03-08T20:53:55.657Z,99.90
2023-03-08T20:56:28.271Z,99.90
2023-03-08T20:59:02.863Z,99.90
2023-03-08T21:01:35.833Z,99.90
2023-03-08T21:04:06.115Z,99.90
2023-03-08T21:06:36.502Z,99.90
2023-03-08T21:09:07.400Z,99.90
2023-03-08T21:11:37.601Z,99.90
2023-03-08T21:14:10.932Z,99.90
2023-03-08T21:16:41.369Z,99.90
2023-03-08T21:19:12.156Z,99.90
2023-03-08T21:21:46.209Z,99.90
2023-03-08T21:24:19.368Z,99.90
2023-03-08T21:26:49.922Z,99.90
2023-03-08T21:29:25.553Z,99.90
2023-03-08T21:31:57.153Z,99.90
2023-03-08T21:34:28.892Z,99.90
2023-03-08T21:36:59.018Z,99.90
2023-03-08T21:39:29.175Z,99.90
2023-03-08T21:42:01.731Z,99.90
2023-03-08T21:44:34.623Z,99.90
2023-03-08T21:47:05.036Z,99.90
2023-03-08T21:49:36.838Z,99.90
2023-03-08T21:52:08.487Z,99.90
2023-03-08T21:54:38.767Z,99.90
2023-03-08T21:57:08.922Z,99.90
2023-03-08T21:59:42.181Z,99.90
2023-03-08T22:02:13.539Z,99.90
2023-03-08T22:04:44.083Z,99.90
2023-03-08T22:07:14.276Z,99.90
2023-03-08T22:09:44.734Z,99.90
2023-03-08T22:12:16.404Z,99.90
2023-03-08T22:14:49.249Z,99.90
2023-03-08T22:17:19.367Z,99.90
2023-03-08T22:19:49.915Z,99.90
2023-03-08T22:22:20.491Z,99.90
2023-03-08T22:24:51.166Z,99.90
2023-03-08T22:27:23.133Z,99.90
2023-03-08T22:29:56.178Z,99.90
2023-03-08T22:32:26.409Z,99.90
2023-03-08T22:34:56.961Z,99.90
2023-03-08T22:37:27.017Z,99.90
2023-03-08T22:39:57.477Z,99.90
2023-03-08T22:42:28.189Z,99.90
2023-03-08T22:45:01.280Z,99.90
2023-03-08T22:47:31.607Z,99.90
2023-03-08T22:50:01.865Z,99.90
2023-03-08T22:52:32.684Z,99.90
2023-03-08T22:55:03.112Z,99.90
2023-03-08T22:57:33.604Z,99.90
2023-03-08T23:00:14.641Z,99.90
2023-03-08T23:02:45.025Z,99.90
2023-03-08T23:05:16.843Z,99.90
2023-03-08T23:07:47.108Z,99.90
2023-03-08T23:10:19.957Z,99.90
2023-03-08T23:12:50.400Z,99.90
2023-03-08T23:15:23.467Z,99.90
2023-03-08T23:17:53.645Z,99.90
2023-03-08T23:20:24.794Z,99.90
2023-03-08T23:22:54.985Z,99.90
2023-03-08T23:25:25.422Z,99.90
2023-03-08T23:27:55.556Z,99.90
2023-03-08T23:30:28.568Z,99.90
2023-03-08T23:32:59.221Z,99.90
2023-03-08T23:35:29.369Z,99.90
2023-03-08T23:37:59.557Z,99.90
2023-03-08T23:40:30.268Z,99.90
2023-03-08T23:43:00.928Z,99.90
2023-03-08T23:45:34.033Z,99.90
2023-03-08T23:48:04.272Z,99.90
2023-03-08T23:50:34.340Z,99.90
2023-03-08T23:53:04.843Z,99.90
2023-03-08T23:55:39.408Z,99.90
2023-03-08T23:58:10.428Z,99.90
